Time;durP1;ratioP1;P1;durP2;ratioP2;P2;SDS_P1;SDS_P2;PMS_P1;PMS_P2;Temp;Humidity;BMP_temperature;BMP_pressure;BME280_temperature;BME280_humidity;BME280_pressure;Samples;Min_cycle;Max_cycle;Signal;HPM_P1;HPM_P2
2023/12/09 00:01:53;;;;;;;96.00;39.03;;;-0.70;99.90;;;;;;5130541;27;20211;-66
2023/12/09 00:04:21;;;;;;;103.40;40.93;;;-0.70;99.90;;;;;;5130312;27;20600;-64
2023/12/09 00:06:50;;;;;;;100.03;41.57;;;-0.60;99.90;;;;;;5130535;27;20203;-62
2023/12/09 00:09:20;;;;;;;99.17;39.20;;;-0.60;99.90;;;;;;5130571;27;20277;-66
2023/12/09 00:11:48;;;;;;;99.67;38.00;;;-0.60;99.90;;;;;;5129796;27;20206;-65
2023/12/09 00:14:16;;;;;;;104.53;41.27;;;-0.30;99.90;;;;;;5130067;27;20194;-62
2023/12/09 00:16:45;;;;;;;109.80;38.73;;;-0.50;99.90;;;;;;5130163;27;20195;-66
2023/12/09 00:19:13;;;;;;;102.17;42.77;;;-0.40;99.90;;;;;;5129737;27;20269;-67
2023/12/09 00:21:42;;;;;;;95.03;40.67;;;-0.50;99.90;;;;;;5129916;27;20197;-64
2023/12/09 00:24:10;;;;;;;120.87;43.23;;;-0.50;99.90;;;;;;5129703;27;20210;-61
2023/12/09 00:26:40;;;;;;;94.87;39.90;;;-0.40;99.90;;;;;;5129181;27;20195;-63
2023/12/09 00:29:08;;;;;;;106.50;40.03;;;-0.40;99.90;;;;;;5114929;27;20195;-63
2023/12/09 00:31:36;;;;;;;105.07;40.57;;;-0.50;99.90;;;;;;5118542;27;20186;-62
2023/12/09 00:34:06;;;;;;;111.60;41.40;;;-0.60;99.90;;;;;;5129460;27;20299;-65
2023/12/09 00:36:34;;;;;;;101.10;43.07;;;-0.50;99.90;;;;;;5129682;27;20199;-63
2023/12/09 00:39:02;;;;;;;109.47;39.30;;;-0.50;99.90;;;;;;5129641;27;20570;-66
2023/12/09 00:41:31;;;;;;;118.03;43.43;;;-0.70;99.90;;;;;;5129402;28;20206;-66
2023/12/09 00:44:00;;;;;;;111.63;43.93;;;-0.80;99.90;;;;;;5129682;28;20264;-62
2023/12/09 00:46:29;;;;;;;90.47;36.47;;;-0.80;99.90;;;;;;5129715;28;20227;-65
2023/12/09 00:48:57;;;;;;;105.43;40.73;;;-0.80;99.90;;;;;;5129461;28;20195;-64
2023/12/09 00:51:26;;;;;;;107.00;38.10;;;-0.90;99.90;;;;;;5129251;28;20212;-66
2023/12/09 00:53:54;;;;;;;84.73;31.87;;;-0.90;99.90;;;;;;5129383;28;20225;-65
2023/12/09 00:56:23;;;;;;;111.50;40.83;;;-1.00;99.90;;;;;;5129208;28;20206;-65
2023/12/09 00:59:01;;;;;;;104.50;39.03;;;-0.90;99.90;;;;;;5129706;28;20226;-61
2023/12/09 01:01:29;;;;;;;111.13;42.87;;;-0.80;99.90;;;;;;5129490;28;20629;-66
2023/12/09 01:03:57;;;;;;;110.27;40.63;;;-0.60;99.90;;;;;;5129159;28;20618;-61
2023/12/09 01:06:26;;;;;;;103.27;41.37;;;-0.50;99.90;;;;;;5128725;28;20199;-66
2023/12/09 01:08:55;;;;;;;105.47;43.33;;;-0.50;99.90;;;;;;5111021;27;20628;-61
2023/12/09 01:11:24;;;;;;;102.03;41.87;;;-0.30;99.90;;;;;;5123177;28;20191;-66
2023/12/09 01:13:52;;;;;;;105.27;41.60;;;-0.40;99.90;;;;;;5108872;28;20280;-64
2023/12/09 01:16:22;;;;;;;93.23;40.83;;;-0.50;99.90;;;;;;5108700;28;20211;-66
2023/12/09 01:18:50;;;;;;;108.87;41.63;;;-0.40;99.90;;;;;;5108684;28;20196;-64
2023/12/09 01:21:18;;;;;;;112.33;41.53;;;-0.50;99.90;;;;;;5109987;28;20283;-65
2023/12/09 01:23:47;;;;;;;105.97;43.23;;;-0.50;99.90;;;;;;5116082;27;20320;-64
2023/12/09 01:26:15;;;;;;;107.00;41.37;;;-0.50;99.90;;;;;;5130898;27;20244;-64
2023/12/09 01:28:44;;;;;;;106.13;43.50;;;-0.30;99.90;;;;;;5123811;27;20221;-66
2023/12/09 01:31:12;;;;;;;98.23;41.30;;;-0.50;99.90;;;;;;5112892;28;20199;-65
2023/12/09 01:33:42;;;;;;;100.67;40.53;;;-0.30;99.90;;;;;;5112259;28;20319;-67
2023/12/09 01:36:10;;;;;;;102.80;41.27;;;-0.50;99.90;;;;;;5112535;28;20200;-65
2023/12/09 01:38:38;;;;;;;102.37;42.67;;;-0.50;99.90;;;;;;5112433;28;20199;-67
2023/12/09 01:41:07;;;;;;;115.57;42.63;;;-0.30;99.90;;;;;;5112305;28;20490;-68
2023/12/09 01:43:35;;;;;;;111.47;43.23;;;-0.30;99.90;;;;;;5112238;28;20924;-66
2023/12/09 01:46:06;;;;;;;117.40;44.20;;;-0.60;99.90;;;;;;5112175;28;20218;-64
2023/12/09 01:48:35;;;;;;;120.90;45.33;;;-0.50;99.90;;;;;;5112539;28;20199;-68
2023/12/09 01:51:07;;;;;;;108.60;42.07;;;-0.30;99.90;;;;;;5112043;28;20661;-65
2023/12/09 01:53:36;;;;;;;102.70;41.97;;;-0.40;99.90;;;;;;5111632;28;20231;-67
2023/12/09 01:56:06;;;;;;;106.43;42.43;;;-0.30;99.90;;;;;;5112053;28;20649;-68
2023/12/09 01:58:35;;;;;;;113.10;43.57;;;-0.30;99.90;;;;;;5126967;27;20230;-68
2023/12/09 02:01:04;;;;;;;110.77;42.57;;;-0.40;99.90;;;;;;5132838;27;20760;-69
2023/12/09 02:03:34;;;;;;;112.57;44.33;;;-0.40;99.90;;;;;;5132514;27;20202;-69
2023/12/09 02:06:03;;;;;;;115.93;45.10;;;-0.70;99.90;;;;;;5132138;27;20191;-67
2023/12/09 02:08:33;;;;;;;106.73;43.10;;;-0.40;99.90;;;;;;5132276;27;20222;-69
2023/12/09 02:11:09;;;;;;;108.73;40.60;;;-0.30;99.90;;;;;;5132645;27;20199;-69
2023/12/09 02:13:52;;;;;;;98.60;39.17;;;-0.20;99.90;;;;;;5132486;27;20222;-70
2023/12/09 02:16:28;;;;;;;101.73;40.00;;;-0.60;99.90;;;;;;5131206;27;20613;-67
2023/12/09 02:18:58;;;;;;;98.70;39.43;;;-0.60;99.90;;;;;;5132570;27;20209;-67
2023/12/09 02:21:27;;;;;;;90.27;37.30;;;-0.60;99.90;;;;;;5130028;27;20197;-67
2023/12/09 02:23:57;;;;;;;89.57;38.77;;;-0.70;99.90;;;;;;5131042;27;20664;-67
2023/12/09 02:26:27;;;;;;;96.03;38.00;;;-0.60;99.90;;;;;;5132100;27;20289;-68
2023/12/09 02:29:03;;;;;;;93.07;39.00;;;-0.50;99.90;;;;;;5132559;27;20195;-64
2023/12/09 02:31:34;;;;;;;93.57;38.47;;;-0.50;99.90;;;;;;5132278;27;20225;-67
2023/12/09 02:34:05;;;;;;;94.00;38.70;;;-0.60;99.90;;;;;;5131347;27;20250;-64
2023/12/09 02:36:35;;;;;;;90.00;37.60;;;-0.50;99.90;;;;;;5131745;27;20264;-65
2023/12/09 02:39:07;;;;;;;99.07;38.77;;;-0.80;99.90;;;;;;5132412;27;20195;-66
2023/12/09 02:41:36;;;;;;;75.37;32.67;;;-0.90;99.90;;;;;;5132487;27;20207;-62
2023/12/09 02:44:05;;;;;;;94.83;38.33;;;-1.00;99.90;;;;;;5132659;27;20656;-65
2023/12/09 02:46:34;;;;;;;91.23;38.97;;;-0.90;99.90;;;;;;5132088;27;20577;-67
2023/12/09 02:49:02;;;;;;;83.67;33.93;;;-0.60;99.90;;;;;;5121382;27;20207;-66
2023/12/09 02:51:30;;;;;;;95.30;37.57;;;-0.50;99.90;;;;;;5128902;27;20303;-65
2023/12/09 02:53:59;;;;;;;89.47;35.53;;;-0.50;99.90;;;;;;5131601;27;20218;-65
2023/12/09 02:56:29;;;;;;;84.03;36.63;;;-0.30;99.90;;;;;;5131710;27;20219;-66
2023/12/09 02:58:57;;;;;;;79.33;33.40;;;-0.30;99.90;;;;;;5131453;27;20284;-65
2023/12/09 03:01:25;;;;;;;83.23;32.83;;;-0.60;99.90;;;;;;5131394;27;20290;-66
2023/12/09 03:03:54;;;;;;;88.47;37.10;;;-0.70;99.90;;;;;;5131438;27;20197;-67
2023/12/09 03:06:22;;;;;;;88.67;36.03;;;-0.50;99.90;;;;;;5130903;27;20197;-66
2023/12/09 03:08:50;;;;;;;81.23;35.47;;;-0.60;99.90;;;;;;5113181;27;20198;-64
2023/12/09 03:11:19;;;;;;;82.17;37.33;;;-0.70;99.90;;;;;;5131647;27;20223;-67
2023/12/09 03:13:48;;;;;;;95.90;36.90;;;-0.70;99.90;;;;;;5131284;27;20219;-67
2023/12/09 03:16:16;;;;;;;89.93;35.03;;;-0.70;99.90;;;;;;5130955;27;20244;-68
2023/12/09 03:18:45;;;;;;;87.10;37.37;;;-0.80;99.90;;;;;;5131570;27;20203;-67
2023/12/09 03:21:15;;;;;;;87.73;34.97;;;-0.50;99.90;;;;;;5126394;27;20204;-66
2023/12/09 03:23:43;;;;;;;87.43;37.53;;;-0.40;99.90;;;;;;5125135;27;20698;-66
2023/12/09 03:26:16;;;;;;;85.47;35.83;;;-0.30;99.90;;;;;;5130531;27;20206;-67
2023/12/09 03:28:45;;;;;;;82.43;35.13;;;-0.40;99.90;;;;;;5131104;27;20191;-62
2023/12/09 03:31:16;;;;;;;78.23;33.10;;;-0.70;99.90;;;;;;5131100;27;20672;-65
2023/12/09 03:33:45;;;;;;;88.13;36.53;;;-0.70;99.90;;;;;;5131203;27;20215;-69
2023/12/09 03:36:14;;;;;;;79.03;33.23;;;-0.70;99.90;;;;;;5131120;27;20203;-63
2023/12/09 03:38:43;;;;;;;83.70;33.73;;;-0.90;99.90;;;;;;5130932;27;20203;-62
2023/12/09 03:41:11;;;;;;;76.00;32.77;;;-1.00;99.90;;;;;;5131089;27;20202;-66
2023/12/09 03:43:39;;;;;;;76.17;32.87;;;-0.90;99.90;;;;;;5130954;27;20619;-69
2023/12/09 03:46:08;;;;;;;72.67;34.23;;;-0.90;99.90;;;;;;5130588;27;20270;-68
2023/12/09 03:48:37;;;;;;;77.50;35.60;;;-0.80;99.90;;;;;;5127662;27;20214;-64
2023/12/09 03:51:06;;;;;;;81.60;34.07;;;-0.50;99.90;;;;;;5112298;27;20231;-67
2023/12/09 03:53:35;;;;;;;77.20;32.17;;;-0.40;99.90;;;;;;5130719;27;20687;-68
2023/12/09 03:56:03;;;;;;;83.53;35.87;;;-0.50;99.90;;;;;;5130540;27;20196;-66
2023/12/09 03:58:32;;;;;;;79.40;32.90;;;-0.50;99.90;;;;;;5130368;27;20597;-66
2023/12/09 04:01:00;;;;;;;70.67;32.37;;;-0.50;99.90;;;;;;5130353;27;20668;-68
2023/12/09 04:03:29;;;;;;;72.93;30.70;;;-0.50;99.90;;;;;;5130686;27;20191;-65
2023/12/09 04:05:59;;;;;;;79.97;33.37;;;-0.70;99.90;;;;;;5130517;27;20187;-68
2023/12/09 04:08:28;;;;;;;76.90;32.10;;;-0.80;99.90;;;;;;5130354;27;20684;-68
2023/12/09 04:10:57;;;;;;;73.00;33.17;;;-0.60;99.90;;;;;;5130145;27;20195;-67
2023/12/09 04:13:27;;;;;;;75.77;33.07;;;-0.50;99.90;;;;;;5130234;27;20729;-68
2023/12/09 04:15:55;;;;;;;77.30;34.47;;;-0.40;99.90;;;;;;5130134;27;20235;-66
2023/12/09 04:18:24;;;;;;;75.53;31.27;;;-0.40;99.90;;;;;;5130344;27;20657;-68
2023/12/09 04:20:53;;;;;;;75.87;32.40;;;-0.50;99.90;;;;;;5129954;27;20564;-67
2023/12/09 04:23:24;;;;;;;76.50;33.47;;;-0.50;99.90;;;;;;5111667;27;20755;-67
2023/12/09 04:25:53;;;;;;;80.93;33.57;;;-0.40;99.90;;;;;;5130031;27;20191;-61
2023/12/09 04:28:21;;;;;;;66.33;29.30;;;-0.40;99.90;;;;;;5130180;27;20199;-60
2023/12/09 04:30:51;;;;;;;74.83;31.37;;;-0.30;99.90;;;;;;5130081;27;20202;-69
2023/12/09 04:33:20;;;;;;;88.80;35.03;;;-0.40;99.90;;;;;;5129980;27;20202;-64
2023/12/09 04:35:48;;;;;;;78.07;32.03;;;-0.20;99.90;;;;;;5129863;27;20222;-59
2023/12/09 04:38:17;;;;;;;78.90;31.93;;;0.00;99.90;;;;;;5129888;27;20203;-66
2023/12/09 04:40:47;;;;;;;76.67;32.87;;;-0.40;99.90;;;;;;5116970;27;20188;-68
2023/12/09 04:43:15;;;;;;;72.97;31.10;;;-0.40;99.90;;;;;;5116167;28;20199;-67
2023/12/09 04:45:44;;;;;;;69.60;31.03;;;-0.50;99.90;;;;;;5129999;28;20187;-60
2023/12/09 04:48:13;;;;;;;75.77;33.03;;;-0.40;99.90;;;;;;5130161;28;20191;-68
2023/12/09 04:50:42;;;;;;;68.63;31.50;;;-0.40;99.90;;;;;;5129697;28;20191;-67
2023/12/09 04:53:11;;;;;;;80.60;33.13;;;-0.30;99.90;;;;;;5129917;28;20202;-68
2023/12/09 04:55:40;;;;;;;77.00;31.37;;;-0.40;99.90;;;;;;5130131;28;20222;-68
2023/12/09 04:58:10;;;;;;;71.93;31.57;;;-0.30;99.90;;;;;;5131595;27;20191;-65
2023/12/09 05:00:39;;;;;;;64.07;29.07;;;-0.10;99.90;;;;;;5134172;27;20762;-67
2023/12/09 05:03:07;;;;;;;73.07;31.73;;;-0.10;99.90;;;;;;5134327;27;20214;-68
2023/12/09 05:05:36;;;;;;;65.83;29.70;;;-0.10;99.90;;;;;;5133987;27;20191;-68
2023/12/09 05:08:05;;;;;;;72.07;30.40;;;-0.20;99.90;;;;;;5134294;27;20218;-64
2023/12/09 05:10:33;;;;;;;78.27;30.10;;;-0.10;99.90;;;;;;5134088;27;20293;-63
2023/12/09 05:13:02;;;;;;;62.43;27.93;;;-0.20;99.90;;;;;;5134286;27;20649;-68
2023/12/09 05:15:32;;;;;;;64.00;28.93;;;-0.30;99.90;;;;;;5134203;27;20210;-64
2023/12/09 05:18:01;;;;;;;80.70;31.43;;;-0.10;99.90;;;;;;5134098;27;20215;-65
2023/12/09 05:20:30;;;;;;;72.00;30.27;;;-0.10;99.90;;;;;;5133459;27;20202;-64
2023/12/09 05:22:58;;;;;;;73.80;31.77;;;-0.20;99.90;;;;;;5133712;27;20203;-68
2023/12/09 05:25:27;;;;;;;68.70;30.70;;;-0.10;99.90;;;;;;5133435;27;20214;-67
2023/12/09 05:27:56;;;;;;;68.57;29.43;;;-0.30;99.90;;;;;;5133473;27;20191;-60
2023/12/09 05:30:24;;;;;;;64.20;31.10;;;-0.20;99.90;;;;;;5133422;27;20656;-66
2023/12/09 05:32:54;;;;;;;71.10;29.77;;;-0.30;99.90;;;;;;5133300;27;20191;-68
2023/12/09 05:35:23;;;;;;;62.67;29.53;;;-0.10;99.90;;;;;;5133294;27;20215;-66
2023/12/09 05:37:52;;;;;;;70.27;30.33;;;-0.20;99.90;;;;;;5133188;27;20195;-61
2023/12/09 05:40:20;;;;;;;63.07;29.00;;;-0.60;99.90;;;;;;5133382;27;21002;-66
2023/12/09 05:42:49;;;;;;;68.30;28.37;;;-0.50;99.90;;;;;;5129867;27;20191;-66
2023/12/09 05:45:18;;;;;;;72.33;31.37;;;-0.40;99.90;;;;;;5118786;27;20315;-66
2023/12/09 05:47:46;;;;;;;68.97;29.03;;;-0.30;99.90;;;;;;5133291;27;20218;-64
2023/12/09 05:50:16;;;;;;;71.17;29.67;;;-0.30;99.90;;;;;;5133120;27;20263;-66
2023/12/09 05:52:45;;;;;;;73.47;29.83;;;-0.20;99.90;;;;;;5132997;27;20199;-60
2023/12/09 05:55:16;;;;;;;69.67;30.63;;;-0.10;99.90;;;;;;5133095;27;20719;-68
2023/12/09 05:57:45;;;;;;;64.57;29.70;;;0.00;99.90;;;;;;5132939;27;20195;-60
2023/12/09 06:00:14;;;;;;;64.83;31.13;;;-0.20;99.90;;;;;;5132896;27;20253;-67
2023/12/09 06:02:43;;;;;;;68.37;30.77;;;-0.10;99.90;;;;;;5133047;27;20239;-67
2023/12/09 06:05:11;;;;;;;74.60;37.43;;;0.10;99.90;;;;;;5132966;27;20229;-67
2023/12/09 06:07:41;;;;;;;74.20;32.70;;;0.10;99.90;;;;;;5132625;27;20210;-64
2023/12/09 06:10:10;;;;;;;70.23;29.43;;;0.00;99.90;;;;;;5132614;27;20198;-67
2023/12/09 06:12:41;;;;;;;67.33;32.73;;;-0.10;99.90;;;;;;5132691;27;20684;-63
2023/12/09 06:15:10;;;;;;;73.77;30.17;;;0.10;99.90;;;;;;5132721;27;20203;-65
2023/12/09 06:17:39;;;;;;;64.03;30.90;;;0.00;99.90;;;;;;5132738;27;20619;-68
2023/12/09 06:20:09;;;;;;;67.40;29.70;;;0.10;99.90;;;;;;5132508;27;20203;-66
2023/12/09 06:22:38;;;;;;;65.40;29.70;;;0.10;99.90;;;;;;5132422;27;20213;-67
2023/12/09 06:25:09;;;;;;;70.93;33.57;;;0.10;99.90;;;;;;5132588;27;20191;-66
2023/12/09 06:27:38;;;;;;;71.27;29.70;;;0.10;99.90;;;;;;5132470;27;20201;-68
2023/12/09 06:30:09;;;;;;;67.07;29.93;;;0.30;99.90;;;;;;5132786;27;20207;-67
2023/12/09 06:32:38;;;;;;;67.70;28.73;;;0.30;99.90;;;;;;5132075;27;20195;-60
2023/12/09 06:35:07;;;;;;;68.93;30.73;;;0.40;99.90;;;;;;5129857;27;20191;-64
2023/12/09 06:37:36;;;;;;;63.50;31.07;;;0.50;99.90;;;;;;5123449;27;20300;-67
2023/12/09 06:40:05;;;;;;;69.17;29.90;;;0.50;99.90;;;;;;5117133;27;20298;-65
2023/12/09 06:42:37;;;;;;;68.97;31.03;;;0.20;99.90;;;;;;5111487;28;20206;-66
2023/12/09 06:45:06;;;;;;;65.37;29.00;;;0.20;99.90;;;;;;5111540;28;20223;-66
2023/12/09 06:47:35;;;;;;;64.43;28.93;;;0.10;99.90;;;;;;5111373;28;20214;-60
2023/12/09 06:50:06;;;;;;;65.00;28.20;;;0.00;99.90;;;;;;5092507;28;20294;-58
2023/12/09 06:52:34;;;;;;;63.43;29.10;;;0.10;99.90;;;;;;5111137;28;20210;-68
2023/12/09 06:55:03;;;;;;;66.10;29.20;;;0.20;99.90;;;;;;5111599;28;20597;-65
2023/12/09 06:57:32;;;;;;;67.27;28.07;;;0.10;99.90;;;;;;5111326;28;20231;-64
2023/12/09 07:00:07;;;;;;;63.60;27.73;;;0.20;99.90;;;;;;5118447;27;20587;-61
2023/12/09 07:02:36;;;;;;;68.27;28.17;;;0.00;99.90;;;;;;5131682;27;20679;-59
2023/12/09 07:05:13;;;;;;;76.10;30.30;;;0.10;99.90;;;;;;5131856;27;20198;-61
2023/12/09 07:07:42;;;;;;;75.23;28.57;;;0.10;99.90;;;;;;5119358;27;20343;-58
2023/12/09 07:10:11;;;;;;;73.07;30.00;;;0.00;99.90;;;;;;5125113;27;20290;-63
2023/12/09 07:12:39;;;;;;;72.63;30.87;;;0.00;99.90;;;;;;5112084;27;21054;-66
2023/12/09 07:15:12;;;;;;;68.93;31.03;;;0.20;99.90;;;;;;5111360;28;20224;-67
2023/12/09 07:17:40;;;;;;;81.23;30.47;;;0.30;99.90;;;;;;5111367;28;20342;-67
2023/12/09 07:20:10;;;;;;;85.53;33.40;;;0.40;99.90;;;;;;5110556;28;20599;-66
2023/12/09 07:22:38;;;;;;;73.40;30.13;;;0.10;99.90;;;;;;5114195;27;20296;-62
2023/12/09 07:25:08;;;;;;;69.43;32.33;;;0.10;99.90;;;;;;5111645;28;20226;-68
2023/12/09 07:27:36;;;;;;;78.63;30.83;;;0.00;99.90;;;;;;5111702;28;20192;-64
2023/12/09 07:30:06;;;;;;;79.07;30.43;;;0.00;99.90;;;;;;5111857;28;20215;-66
2023/12/09 07:32:36;;;;;;;70.03;28.77;;;-0.20;99.90;;;;;;5111388;28;20669;-62
2023/12/09 07:35:06;;;;;;;71.37;30.43;;;-0.10;99.90;;;;;;5111830;28;20235;-67
2023/12/09 07:37:34;;;;;;;73.27;32.27;;;0.00;99.90;;;;;;5110802;28;20219;-63
2023/12/09 07:40:04;;;;;;;68.43;28.63;;;0.30;99.90;;;;;;5111594;28;20192;-66
2023/12/09 07:42:33;;;;;;;77.47;31.97;;;0.50;99.90;;;;;;5115740;27;20199;-59
2023/12/09 07:45:02;;;;;;;78.87;31.20;;;0.50;99.90;;;;;;5124887;27;20283;-61
2023/12/09 07:47:30;;;;;;;77.83;32.20;;;0.50;99.90;;;;;;5131676;27;20195;-66
2023/12/09 07:50:00;;;;;;;84.90;31.90;;;0.10;99.90;;;;;;5131505;27;20191;-63
2023/12/09 07:52:29;;;;;;;79.30;30.77;;;0.30;99.90;;;;;;5130440;27;20183;-63
2023/12/09 07:54:58;;;;;;;72.53;29.87;;;0.00;99.90;;;;;;5131422;27;20198;-64
2023/12/09 07:57:26;;;;;;;74.13;30.40;;;0.10;99.90;;;;;;5131320;27;20249;-64
2023/12/09 07:59:55;;;;;;;73.00;33.33;;;0.00;99.90;;;;;;5131005;27;20269;-67
2023/12/09 08:02:23;;;;;;;77.70;31.03;;;0.10;99.90;;;;;;5112459;27;20302;-67
2023/12/09 08:04:52;;;;;;;77.17;31.50;;;0.30;99.90;;;;;;5131063;27;20202;-66
2023/12/09 08:07:22;;;;;;;75.27;29.73;;;0.30;99.90;;;;;;5130490;27;20314;-63
2023/12/09 08:09:51;;;;;;;85.20;31.13;;;0.40;99.90;;;;;;5130862;27;20614;-65
2023/12/09 08:12:19;;;;;;;76.37;31.57;;;0.50;99.90;;;;;;5130535;27;20194;-63
2023/12/09 08:14:48;;;;;;;85.47;34.10;;;0.40;99.90;;;;;;5130870;27;20194;-66
2023/12/09 08:17:17;;;;;;;77.10;30.87;;;0.60;99.90;;;;;;5130766;27;20317;-61
2023/12/09 08:19:45;;;;;;;76.17;30.83;;;0.50;99.90;;;;;;5130326;27;20672;-61
2023/12/09 08:22:14;;;;;;;80.90;33.77;;;0.70;99.90;;;;;;5130031;27;20219;-60
2023/12/09 08:24:46;;;;;;;98.80;34.83;;;0.50;99.90;;;;;;5130540;27;20214;-65
2023/12/09 08:27:15;;;;;;;82.20;31.40;;;0.60;99.90;;;;;;5117127;27;20196;-66
2023/12/09 08:29:43;;;;;;;94.13;33.43;;;0.60;99.90;;;;;;5130794;27;20276;-63
2023/12/09 08:32:12;;;;;;;94.70;34.50;;;0.50;99.90;;;;;;5129439;27;20612;-66
2023/12/09 08:34:41;;;;;;;91.10;33.13;;;0.30;99.90;;;;;;5121312;27;20231;-62
2023/12/09 08:37:12;;;;;;;87.67;35.43;;;0.20;99.90;;;;;;5121471;27;20222;-64
2023/12/09 08:39:42;;;;;;;82.07;35.03;;;0.20;99.90;;;;;;5122797;27;20252;-61
2023/12/09 08:42:12;;;;;;;93.00;33.67;;;0.30;99.90;;;;;;5130432;27;20648;-61
2023/12/09 08:44:41;;;;;;;78.07;32.27;;;0.50;99.90;;;;;;5130553;28;20700;-66
2023/12/09 08:47:09;;;;;;;89.50;33.87;;;0.40;99.90;;;;;;5130556;28;20672;-60
2023/12/09 08:49:38;;;;;;;97.83;36.80;;;0.70;99.90;;;;;;5129895;28;20190;-65
2023/12/09 08:52:07;;;;;;;83.03;32.10;;;0.90;99.90;;;;;;5130124;28;20653;-59
2023/12/09 08:54:37;;;;;;;99.43;35.63;;;0.80;99.90;;;;;;5046382;28;20202;-60
2023/12/09 08:57:06;;;;;;;89.67;34.63;;;0.70;99.90;;;;;;5046656;28;20257;-64
2023/12/09 08:59:36;;;;;;;120.20;59.87;;;0.70;99.90;;;;;;5046729;28;20288;-67
2023/12/09 09:02:05;;;;;;;111.23;44.57;;;0.30;99.90;;;;;;5046599;28;20205;-63
2023/12/09 09:04:33;;;;;;;101.97;41.30;;;0.30;99.90;;;;;;5046375;28;20265;-67
2023/12/09 09:07:02;;;;;;;96.20;39.33;;;0.60;99.90;;;;;;5046550;28;20210;-64
2023/12/09 09:09:31;;;;;;;98.17;41.10;;;0.70;99.90;;;;;;5046418;28;20245;-65
2023/12/09 09:11:59;;;;;;;93.93;40.67;;;0.50;99.90;;;;;;5058769;28;20546;-64
2023/12/09 09:14:28;;;;;;;92.30;41.60;;;0.50;99.90;;;;;;5130177;28;20238;-63
2023/12/09 09:16:58;;;;;;;91.43;35.77;;;0.80;99.90;;;;;;5125970;27;20261;-66
2023/12/09 09:19:26;;;;;;;112.47;53.00;;;0.90;99.90;;;;;;5126003;28;20277;-64
2023/12/09 09:21:55;;;;;;;136.37;67.43;;;0.80;99.90;;;;;;5112963;28;20198;-64
2023/12/09 09:24:24;;;;;;;109.03;49.23;;;1.00;99.90;;;;;;5129955;28;20287;-65
2023/12/09 09:26:52;;;;;;;119.37;59.03;;;1.20;99.90;;;;;;5130106;28;20220;-65
2023/12/09 09:29:21;;;;;;;155.00;68.70;;;1.00;99.90;;;;;;5130148;28;20569;-65
2023/12/09 09:31:50;;;;;;;102.67;43.13;;;1.30;99.90;;;;;;5130186;28;20243;-66
2023/12/09 09:34:20;;;;;;;84.20;34.50;;;1.50;99.90;;;;;;5129474;28;20226;-65
2023/12/09 09:36:48;;;;;;;99.80;49.60;;;1.30;99.90;;;;;;5128982;28;20206;-65
2023/12/09 09:39:17;;;;;;;91.90;38.40;;;1.10;99.90;;;;;;5109294;28;20254;-65
2023/12/09 09:41:59;;;;;;;140.87;64.47;;;0.80;99.90;;;;;;5109280;28;20653;-62
2023/12/09 09:44:30;;;;;;;95.90;41.43;;;0.70;99.90;;;;;;5116533;27;20650;-59
2023/12/09 09:47:00;;;;;;;92.03;39.27;;;0.80;99.90;;;;;;5115295;27;20187;-64
2023/12/09 09:49:32;;;;;;;96.47;37.33;;;1.00;99.90;;;;;;5125618;27;20573;-65
2023/12/09 09:52:03;;;;;;;88.30;37.20;;;1.00;99.90;;;;;;5133459;27;20264;-66
2023/12/09 09:54:33;;;;;;;89.73;36.23;;;1.20;99.90;;;;;;5126063;27;20208;-61
2023/12/09 09:57:03;;;;;;;75.33;33.30;;;1.20;99.90;;;;;;5120402;27;20306;-65
2023/12/09 09:59:33;;;;;;;89.77;41.47;;;1.20;99.90;;;;;;5118174;27;20346;-65
2023/12/09 10:02:06;;;;;;;91.90;37.27;;;1.20;99.90;;;;;;5122461;27;20298;-66
2023/12/09 10:04:36;;;;;;;89.43;37.60;;;1.20;99.90;;;;;;5112354;28;20282;-67
2023/12/09 10:07:05;;;;;;;87.70;38.10;;;1.20;99.90;;;;;;5112096;28;20204;-65
2023/12/09 10:09:34;;;;;;;81.70;33.23;;;1.20;99.90;;;;;;5112160;28;20195;-67
2023/12/09 10:12:03;;;;;;;103.27;41.67;;;1.10;99.90;;;;;;5112052;28;20794;-66
2023/12/09 10:14:32;;;;;;;94.20;32.90;;;1.30;99.90;;;;;;5112027;28;20203;-66
2023/12/09 10:17:01;;;;;;;80.97;35.83;;;1.00;99.90;;;;;;5112194;28;20194;-65
2023/12/09 10:19:30;;;;;;;105.07;43.77;;;1.00;99.90;;;;;;5112011;28;20220;-62
2023/12/09 10:22:00;;;;;;;94.57;40.87;;;1.30;99.90;;;;;;5115614;27;20191;-67
2023/12/09 10:24:31;;;;;;;90.67;37.50;;;1.40;99.90;;;;;;5132134;27;20219;-60
2023/12/09 10:27:00;;;;;;;94.00;38.80;;;1.60;99.90;;;;;;5132709;27;20197;-61
2023/12/09 10:29:29;;;;;;;99.27;39.63;;;1.70;99.90;;;;;;5132600;27;20191;-62
2023/12/09 10:32:01;;;;;;;82.73;36.37;;;1.90;99.90;;;;;;5132318;27;20223;-65
2023/12/09 10:34:32;;;;;;;81.77;32.70;;;1.80;99.90;;;;;;5125683;27;20199;-63
2023/12/09 10:37:03;;;;;;;84.17;34.43;;;1.80;99.90;;;;;;5114457;27;20192;-66
2023/12/09 10:39:33;;;;;;;82.40;33.73;;;1.90;99.90;;;;;;5111336;28;20756;-67
2023/12/09 10:42:05;;;;;;;87.70;37.93;;;1.80;99.90;;;;;;5111535;28;20611;-65
2023/12/09 10:44:36;;;;;;;76.57;33.40;;;1.90;99.90;;;;;;5111345;28;20264;-65
2023/12/09 10:47:05;;;;;;;78.77;33.83;;;1.70;99.90;;;;;;5111550;28;20187;-64
2023/12/09 10:49:37;;;;;;;77.17;32.70;;;1.50;99.90;;;;;;5111156;28;20223;-65
2023/12/09 10:52:08;;;;;;;89.43;35.77;;;1.60;99.90;;;;;;5115665;27;20640;-66
2023/12/09 10:54:36;;;;;;;77.50;33.27;;;1.60;99.90;;;;;;5125362;27;20657;-66
2023/12/09 10:57:05;;;;;;;75.53;32.27;;;1.60;99.90;;;;;;5131203;27;20945;-63
2023/12/09 10:59:35;;;;;;;72.50;31.30;;;1.60;99.90;;;;;;5131534;27;20634;-66
2023/12/09 11:02:09;;;;;;;87.20;38.17;;;1.70;99.90;;;;;;5131634;27;20187;-59
2023/12/09 11:04:43;;;;;;;70.03;33.10;;;1.70;99.90;;;;;;5131772;27;20195;-66
2023/12/09 11:07:14;;;;;;;89.90;40.33;;;1.80;99.90;;;;;;5132292;27;20695;-66
2023/12/09 11:09:44;;;;;;;85.07;39.20;;;1.80;99.90;;;;;;5131241;27;20203;-66
2023/12/09 11:12:26;;;;;;;84.37;39.57;;;1.80;99.90;;;;;;5131655;27;20244;-60
2023/12/09 11:14:55;;;;;;;102.13;45.57;;;1.90;99.90;;;;;;5131885;27;20195;-67
2023/12/09 11:17:34;;;;;;;99.27;45.20;;;2.10;99.90;;;;;;5124883;27;20187;-60
2023/12/09 11:20:10;;;;;;;89.03;42.07;;;2.20;99.90;;;;;;5115291;27;20471;-67
2023/12/09 11:22:41;;;;;;;90.57;38.53;;;2.30;99.90;;;;;;5124738;27;20941;-62
2023/12/09 11:25:12;;;;;;;81.00;32.90;;;2.00;99.90;;;;;;5122882;27;20338;-67
2023/12/09 11:27:42;;;;;;;82.77;35.23;;;2.00;99.90;;;;;;5122751;27;20680;-63
2023/12/09 11:30:30;;;;;;;78.00;35.03;;;1.80;99.90;;;;;;5123645;27;20196;-62
2023/12/09 11:32:59;;;;;;;75.73;32.23;;;1.80;99.90;;;;;;5119948;27;20548;-63
2023/12/09 11:35:29;;;;;;;83.60;36.17;;;1.70;99.90;;;;;;5124537;27;20207;-68
2023/12/09 11:38:00;;;;;;;105.73;44.47;;;1.60;99.90;;;;;;5125142;27;20686;-62
2023/12/09 11:40:30;;;;;;;86.73;34.70;;;1.70;99.90;;;;;;5128424;27;20195;-68
2023/12/09 11:43:00;;;;;;;76.57;33.07;;;1.60;99.90;;;;;;5124356;27;20195;-63
2023/12/09 11:45:28;;;;;;;81.60;34.20;;;1.70;99.90;;;;;;5131039;27;20195;-67
2023/12/09 11:47:59;;;;;;;74.73;33.00;;;1.60;99.90;;;;;;5131067;27;20185;-66
2023/12/09 11:50:30;;;;;;;82.00;36.43;;;1.70;99.90;;;;;;5130759;27;20195;-65
2023/12/09 11:53:01;;;;;;;88.97;38.00;;;1.70;99.90;;;;;;5130643;27;20199;-64
2023/12/09 11:55:30;;;;;;;100.70;41.03;;;1.90;99.90;;;;;;5130350;27;20298;-65
2023/12/09 11:57:59;;;;;;;81.07;36.67;;;2.10;99.90;;;;;;5130474;27;20810;-65
2023/12/09 12:00:30;;;;;;;91.87;43.43;;;2.10;99.90;;;;;;5130508;27;20211;-66
2023/12/09 12:02:59;;;;;;;91.73;35.63;;;2.20;99.90;;;;;;5130468;27;20704;-66
2023/12/09 12:05:27;;;;;;;100.57;47.50;;;1.80;99.90;;;;;;5130503;27;20647;-67
2023/12/09 12:07:56;;;;;;;94.37;44.57;;;2.00;99.90;;;;;;5128037;27;20547;-64
2023/12/09 12:10:27;;;;;;;87.20;37.30;;;2.10;99.90;;;;;;5130396;27;20199;-67
2023/12/09 12:12:55;;;;;;;87.13;36.63;;;2.00;99.90;;;;;;5130322;27;20201;-65
2023/12/09 12:15:24;;;;;;;90.77;36.53;;;2.00;99.90;;;;;;5125120;27;20647;-64
2023/12/09 12:17:54;;;;;;;87.00;38.07;;;2.00;99.90;;;;;;5118734;27;20253;-65
2023/12/09 12:20:23;;;;;;;86.93;36.03;;;2.00;99.90;;;;;;5128853;27;20229;-65
2023/12/09 12:22:51;;;;;;;102.83;44.07;;;2.20;99.90;;;;;;5130831;27;20653;-67
2023/12/09 12:25:20;;;;;;;87.77;41.23;;;2.20;99.90;;;;;;5129928;27;20188;-67
2023/12/09 12:27:50;;;;;;;83.67;36.73;;;2.30;99.90;;;;;;5130253;27;20207;-60
2023/12/09 12:30:19;;;;;;;81.83;34.20;;;2.10;99.90;;;;;;5130215;27;20191;-63
2023/12/09 12:32:55;;;;;;;94.90;40.10;;;2.10;99.90;;;;;;5130323;27;20278;-64
2023/12/09 12:35:25;;;;;;;94.10;44.63;;;2.10;99.90;;;;;;5129998;27;20302;-59
2023/12/09 12:37:56;;;;;;;97.37;42.20;;;2.20;99.90;;;;;;5130210;27;20192;-65
2023/12/09 12:40:26;;;;;;;92.10;38.17;;;2.30;99.90;;;;;;5129872;27;20233;-63
2023/12/09 12:42:56;;;;;;;86.93;35.37;;;2.20;99.90;;;;;;5130123;27;20187;-58